Página principal
METAR-TAF:

METAR-TAF

Aeroportos :

Aeroporto Internacional Hato

Curaçao, Antilhas Neerlandesas

latitude: 12-12N, longitude: 068-58W, altura: 9 m

Observação actual do tempo

O boletim foi feito há 1 hora e 6 minutos, às 09:00 UTC
Vento 11 kt de es-sudeste
Temperatura 27°C
Humidade 79%
Pressão 1014 hPa
Visibilidade 10 km ou mais

METAR: TNCC 180900Z AUTO 12011KT 9999 NSC 27/23 Q1014 NOSIG

Hora: 06:06 (10:06 UTC)

Previsão

Previsão válida de 18 às 06 UTC a 19 às 06 UTC
Vento 14 kt de este
Visibilidade 10 km ou mais
Nuvens dispersasa uma altura de 2000 ft
Probabilidade 30% :
Temporariamente
de 18 às 06 UTC a 18 às 16 UTC
Nuvens fragmentadasa uma altura de 1500 ft

TAF: TNCC 1806/1906 09014KT 9999 SCT020 PROB30 TEMPO 1806/1816 BKN015

Observações e previsões do tempo de mais de 4000 aeroportos (mensagens METAR e TAF).

As estações disponíveis são os pontos amarelos e vermelhos sobre o mapa.

Mova o rato sobre o mapa para ver o nome da estação.

Depois clique no ponto para visualizar as observações e previsões meteorológicas.

Para alterar o mapa : clique nos botões verdes com uma cruz preta para aumentar o zoom; no botão verde com uma pitada de zoom; ou nas setas verdes para mapas adjacentes.


METAR-TAF: